sensor_id;sensor_type;location;lat;lon;timestamp;P1;durP1;ratioP1;P2;durP2;ratioP2
3875;SDS011;1953;51.222;6.624;2023-07-31T00:04:30;20.10;;;6.33;;
3875;SDS011;1953;51.222;6.624;2023-07-31T00:09:12;16.40;;;5.73;;
3875;SDS011;1953;51.222;6.624;2023-07-31T00:15:46;11.23;;;5.40;;
3875;SDS011;1953;51.222;6.624;2023-07-31T00:20:29;17.60;;;5.70;;
3875;SDS011;1953;51.222;6.624;2023-07-31T00:25:11;14.37;;;4.90;;
3875;SDS011;1953;51.222;6.624;2023-07-31T00:29:54;18.60;;;5.30;;
3875;SDS011;1953;51.222;6.624;2023-07-31T00:34:38;14.00;;;5.27;;
3875;SDS011;1953;51.222;6.624;2023-07-31T00:39:20;16.10;;;4.60;;
3875;SDS011;1953;51.222;6.624;2023-07-31T00:44:03;11.53;;;4.70;;
3875;SDS011;1953;51.222;6.624;2023-07-31T00:48:45;12.07;;;5.03;;
3875;SDS011;1953;51.222;6.624;2023-07-31T00:53:29;11.03;;;5.10;;
3875;SDS011;1953;51.222;6.624;2023-07-31T00:58:12;9.83;;;4.23;;
3875;SDS011;1953;51.222;6.624;2023-07-31T01:02:55;10.67;;;5.20;;
3875;SDS011;1953;51.222;6.624;2023-07-31T01:07:39;9.80;;;4.43;;
3875;SDS011;1953;51.222;6.624;2023-07-31T01:12:30;13.40;;;5.00;;
3875;SDS011;1953;51.222;6.624;2023-07-31T01:17:13;12.97;;;5.30;;
3875;SDS011;1953;51.222;6.624;2023-07-31T01:22:12;11.87;;;4.63;;
3875;SDS011;1953;51.222;6.624;2023-07-31T01:27:08;10.00;;;4.67;;
3875;SDS011;1953;51.222;6.624;2023-07-31T01:31:54;19.30;;;5.20;;
3875;SDS011;1953;51.222;6.624;2023-07-31T01:36:38;14.37;;;4.73;;
3875;SDS011;1953;51.222;6.624;2023-07-31T01:41:21;13.07;;;4.30;;
3875;SDS011;1953;51.222;6.624;2023-07-31T01:46:05;9.03;;;4.27;;
3875;SDS011;1953;51.222;6.624;2023-07-31T01:50:47;20.03;;;4.83;;
3875;SDS011;1953;51.222;6.624;2023-07-31T01:55:30;12.83;;;4.93;;
3875;SDS011;1953;51.222;6.624;2023-07-31T02:00:12;12.37;;;5.00;;
3875;SDS011;1953;51.222;6.624;2023-07-31T02:04:56;13.70;;;5.80;;
3875;SDS011;1953;51.222;6.624;2023-07-31T02:09:39;14.87;;;5.33;;
3875;SDS011;1953;51.222;6.624;2023-07-31T02:14:21;13.50;;;5.07;;
3875;SDS011;1953;51.222;6.624;2023-07-31T02:19:04;12.83;;;5.07;;
3875;SDS011;1953;51.222;6.624;2023-07-31T02:23:48;17.50;;;5.10;;
3875;SDS011;1953;51.222;6.624;2023-07-31T02:28:31;12.70;;;5.00;;
3875;SDS011;1953;51.222;6.624;2023-07-31T02:33:14;13.00;;;4.57;;
3875;SDS011;1953;51.222;6.624;2023-07-31T02:37:57;10.67;;;4.63;;
3875;SDS011;1953;51.222;6.624;2023-07-31T02:42:40;12.80;;;5.87;;
3875;SDS011;1953;51.222;6.624;2023-07-31T02:47:23;16.50;;;5.80;;
3875;SDS011;1953;51.222;6.624;2023-07-31T02:52:06;11.77;;;5.03;;
3875;SDS011;1953;51.222;6.624;2023-07-31T02:56:48;11.77;;;4.60;;
3875;SDS011;1953;51.222;6.624;2023-07-31T03:01:32;11.70;;;4.70;;
3875;SDS011;1953;51.222;6.624;2023-07-31T03:06:15;13.03;;;5.20;;
3875;SDS011;1953;51.222;6.624;2023-07-31T03:10:57;12.20;;;4.70;;
3875;SDS011;1953;51.222;6.624;2023-07-31T03:15:41;16.70;;;5.40;;
3875;SDS011;1953;51.222;6.624;2023-07-31T03:20:25;15.03;;;5.10;;
3875;SDS011;1953;51.222;6.624;2023-07-31T03:25:08;10.50;;;5.43;;
3875;SDS011;1953;51.222;6.624;2023-07-31T03:29:51;12.50;;;5.57;;
3875;SDS011;1953;51.222;6.624;2023-07-31T03:34:34;15.17;;;5.60;;
3875;SDS011;1953;51.222;6.624;2023-07-31T03:39:18;13.33;;;5.23;;
3875;SDS011;1953;51.222;6.624;2023-07-31T03:44:00;18.43;;;5.97;;
3875;SDS011;1953;51.222;6.624;2023-07-31T03:48:43;13.17;;;5.93;;
3875;SDS011;1953;51.222;6.624;2023-07-31T03:53:25;12.50;;;5.63;;
3875;SDS011;1953;51.222;6.624;2023-07-31T03:58:09;14.53;;;5.60;;
3875;SDS011;1953;51.222;6.624;2023-07-31T04:02:52;13.20;;;5.43;;
3875;SDS011;1953;51.222;6.624;2023-07-31T04:07:34;12.47;;;5.83;;
3875;SDS011;1953;51.222;6.624;2023-07-31T04:12:17;13.27;;;5.77;;
3875;SDS011;1953;51.222;6.624;2023-07-31T04:17:00;10.97;;;5.67;;
3875;SDS011;1953;51.222;6.624;2023-07-31T04:21:43;13.00;;;5.63;;
3875;SDS011;1953;51.222;6.624;2023-07-31T04:26:25;16.47;;;6.87;;
3875;SDS011;1953;51.222;6.624;2023-07-31T04:31:08;14.43;;;5.70;;
3875;SDS011;1953;51.222;6.624;2023-07-31T04:35:52;18.33;;;6.37;;
3875;SDS011;1953;51.222;6.624;2023-07-31T04:40:35;12.33;;;6.10;;
3875;SDS011;1953;51.222;6.624;2023-07-31T04:45:18;12.27;;;6.43;;
3875;SDS011;1953;51.222;6.624;2023-07-31T04:50:00;12.70;;;6.23;;
3875;SDS011;1953;51.222;6.624;2023-07-31T04:54:44;11.40;;;6.40;;
3875;SDS011;1953;51.222;6.624;2023-07-31T04:59:27;14.17;;;5.93;;
3875;SDS011;1953;51.222;6.624;2023-07-31T05:04:11;10.60;;;5.73;;
3875;SDS011;1953;51.222;6.624;2023-07-31T05:08:54;12.57;;;6.20;;
3875;SDS011;1953;51.222;6.624;2023-07-31T05:13:38;10.80;;;5.93;;
3875;SDS011;1953;51.222;6.624;2023-07-31T05:18:21;15.53;;;6.70;;
3875;SDS011;1953;51.222;6.624;2023-07-31T05:23:03;12.60;;;6.33;;
3875;SDS011;1953;51.222;6.624;2023-07-31T05:27:46;10.63;;;5.40;;
3875;SDS011;1953;51.222;6.624;2023-07-31T05:32:29;11.77;;;5.30;;
3875;SDS011;1953;51.222;6.624;2023-07-31T05:37:12;11.87;;;6.00;;
3875;SDS011;1953;51.222;6.624;2023-07-31T05:41:55;11.07;;;5.00;;
3875;SDS011;1953;51.222;6.624;2023-07-31T05:46:38;9.30;;;5.97;;
3875;SDS011;1953;51.222;6.624;2023-07-31T05:51:21;11.83;;;5.33;;
3875;SDS011;1953;51.222;6.624;2023-07-31T05:56:04;16.03;;;5.70;;
3875;SDS011;1953;51.222;6.624;2023-07-31T06:00:46;11.47;;;5.27;;
3875;SDS011;1953;51.222;6.624;2023-07-31T06:05:29;9.90;;;5.27;;
3875;SDS011;1953;51.222;6.624;2023-07-31T06:10:13;8.60;;;5.40;;
3875;SDS011;1953;51.222;6.624;2023-07-31T06:14:56;11.97;;;5.83;;
3875;SDS011;1953;51.222;6.624;2023-07-31T06:19:38;10.10;;;5.77;;
3875;SDS011;1953;51.222;6.624;2023-07-31T06:24:21;11.27;;;5.70;;
3875;SDS011;1953;51.222;6.624;2023-07-31T06:29:05;8.50;;;5.40;;
3875;SDS011;1953;51.222;6.624;2023-07-31T06:33:48;11.13;;;5.60;;
3875;SDS011;1953;51.222;6.624;2023-07-31T06:38:30;10.60;;;5.63;;
3875;SDS011;1953;51.222;6.624;2023-07-31T06:43:13;10.80;;;4.90;;
3875;SDS011;1953;51.222;6.624;2023-07-31T06:47:57;7.93;;;4.70;;
3875;SDS011;1953;51.222;6.624;2023-07-31T06:52:42;12.60;;;5.30;;
3875;SDS011;1953;51.222;6.624;2023-07-31T06:57:24;8.60;;;5.07;;
3875;SDS011;1953;51.222;6.624;2023-07-31T07:02:07;12.13;;;5.80;;
3875;SDS011;1953;51.222;6.624;2023-07-31T07:06:51;12.30;;;5.47;;
3875;SDS011;1953;51.222;6.624;2023-07-31T07:11:33;11.90;;;5.57;;
3875;SDS011;1953;51.222;6.624;2023-07-31T07:16:18;11.80;;;5.23;;
3875;SDS011;1953;51.222;6.624;2023-07-31T07:21:00;11.93;;;4.80;;
3875;SDS011;1953;51.222;6.624;2023-07-31T07:25:45;13.67;;;5.17;;
3875;SDS011;1953;51.222;6.624;2023-07-31T07:30:28;7.63;;;4.83;;
3875;SDS011;1953;51.222;6.624;2023-07-31T07:35:11;12.43;;;4.87;;
3875;SDS011;1953;51.222;6.624;2023-07-31T07:39:53;11.80;;;5.27;;
3875;SDS011;1953;51.222;6.624;2023-07-31T07:44:37;10.50;;;5.00;;
3875;SDS011;1953;51.222;6.624;2023-07-31T07:49:20;8.40;;;4.70;;
3875;SDS011;1953;51.222;6.624;2023-07-31T07:54:04;8.80;;;4.30;;
3875;SDS011;1953;51.222;6.624;2023-07-31T07:58:48;8.70;;;4.30;;
3875;SDS011;1953;51.222;6.624;2023-07-31T08:03:32;8.30;;;4.57;;
3875;SDS011;1953;51.222;6.624;2023-07-31T08:08:15;7.50;;;4.40;;
3875;SDS011;1953;51.222;6.624;2023-07-31T08:12:57;6.37;;;4.00;;
3875;SDS011;1953;51.222;6.624;2023-07-31T08:17:40;7.10;;;4.07;;
3875;SDS011;1953;51.222;6.624;2023-07-31T08:22:24;10.43;;;4.23;;
3875;SDS011;1953;51.222;6.624;2023-07-31T08:27:07;8.90;;;4.53;;
3875;SDS011;1953;51.222;6.624;2023-07-31T08:31:49;9.43;;;4.87;;
3875;SDS011;1953;51.222;6.624;2023-07-31T08:36:32;9.57;;;4.37;;
3875;SDS011;1953;51.222;6.624;2023-07-31T08:41:15;8.43;;;4.33;;
3875;SDS011;1953;51.222;6.624;2023-07-31T08:45:58;11.73;;;5.07;;
3875;SDS011;1953;51.222;6.624;2023-07-31T08:50:41;9.67;;;4.57;;
3875;SDS011;1953;51.222;6.624;2023-07-31T08:55:24;9.30;;;4.90;;
3875;SDS011;1953;51.222;6.624;2023-07-31T09:00:10;10.53;;;5.00;;
3875;SDS011;1953;51.222;6.624;2023-07-31T09:04:53;11.00;;;5.13;;
3875;SDS011;1953;51.222;6.624;2023-07-31T09:09:35;10.33;;;5.23;;
3875;SDS011;1953;51.222;6.624;2023-07-31T09:14:32;10.13;;;5.90;;
3875;SDS011;1953;51.222;6.624;2023-07-31T09:19:25;7.97;;;4.37;;
3875;SDS011;1953;51.222;6.624;2023-07-31T09:24:08;10.83;;;5.73;;
3875;SDS011;1953;51.222;6.624;2023-07-31T09:28:51;8.90;;;4.87;;
3875;SDS011;1953;51.222;6.624;2023-07-31T09:33:34;9.70;;;5.90;;
3875;SDS011;1953;51.222;6.624;2023-07-31T09:38:38;10.57;;;4.97;;
3875;SDS011;1953;51.222;6.624;2023-07-31T09:43:23;8.67;;;4.90;;
3875;SDS011;1953;51.222;6.624;2023-07-31T09:48:06;9.43;;;4.90;;
3875;SDS011;1953;51.222;6.624;2023-07-31T09:52:50;10.30;;;5.07;;
3875;SDS011;1953;51.222;6.624;2023-07-31T09:57:35;13.37;;;5.20;;
3875;SDS011;1953;51.222;6.624;2023-07-31T10:02:22;8.60;;;4.60;;
3875;SDS011;1953;51.222;6.624;2023-07-31T10:07:09;16.43;;;5.60;;
3875;SDS011;1953;51.222;6.624;2023-07-31T10:11:53;8.50;;;4.90;;
3875;SDS011;1953;51.222;6.624;2023-07-31T10:21:52;9.87;;;4.70;;
3875;SDS011;1953;51.222;6.624;2023-07-31T10:26:37;11.27;;;5.27;;
3875;SDS011;1953;51.222;6.624;2023-07-31T10:31:37;7.50;;;4.63;;
3875;SDS011;1953;51.222;6.624;2023-07-31T10:36:22;10.27;;;4.20;;
3875;SDS011;1953;51.222;6.624;2023-07-31T10:41:07;8.93;;;4.63;;
3875;SDS011;1953;51.222;6.624;2023-07-31T10:45:50;11.50;;;4.80;;
3875;SDS011;1953;51.222;6.624;2023-07-31T10:50:37;6.20;;;4.23;;
3875;SDS011;1953;51.222;6.624;2023-07-31T10:55:25;6.73;;;3.80;;
3875;SDS011;1953;51.222;6.624;2023-07-31T11:00:19;8.63;;;3.83;;
3875;SDS011;1953;51.222;6.624;2023-07-31T11:16:04;6.57;;;3.00;;
3875;SDS011;1953;51.222;6.624;2023-07-31T11:20:46;4.40;;;3.03;;
3875;SDS011;1953;51.222;6.624;2023-07-31T11:25:38;5.03;;;2.80;;
3875;SDS011;1953;51.222;6.624;2023-07-31T11:30:30;6.43;;;2.90;;
3875;SDS011;1953;51.222;6.624;2023-07-31T11:35:12;4.80;;;2.90;;
3875;SDS011;1953;51.222;6.624;2023-07-31T11:39:58;5.50;;;2.37;;
3875;SDS011;1953;51.222;6.624;2023-07-31T11:44:41;5.40;;;2.70;;
3875;SDS011;1953;51.222;6.624;2023-07-31T11:49:37;5.47;;;2.87;;
3875;SDS011;1953;51.222;6.624;2023-07-31T11:54:21;6.03;;;2.80;;
3875;SDS011;1953;51.222;6.624;2023-07-31T11:59:04;4.40;;;2.50;;
3875;SDS011;1953;51.222;6.624;2023-07-31T12:03:49;4.83;;;2.80;;
3875;SDS011;1953;51.222;6.624;2023-07-31T12:08:34;4.40;;;2.93;;
3875;SDS011;1953;51.222;6.624;2023-07-31T12:16:48;6.03;;;3.33;;
3875;SDS011;1953;51.222;6.624;2023-07-31T12:21:37;5.77;;;3.13;;
3875;SDS011;1953;51.222;6.624;2023-07-31T12:26:20;6.30;;;3.60;;
3875;SDS011;1953;51.222;6.624;2023-07-31T12:31:04;5.07;;;3.33;;
3875;SDS011;1953;51.222;6.624;2023-07-31T12:35:48;5.37;;;3.43;;
3875;SDS011;1953;51.222;6.624;2023-07-31T12:40:31;6.23;;;3.63;;
3875;SDS011;1953;51.222;6.624;2023-07-31T12:45:14;6.83;;;4.90;;
3875;SDS011;1953;51.222;6.624;2023-07-31T12:49:56;6.90;;;4.67;;
3875;SDS011;1953;51.222;6.624;2023-07-31T12:54:40;12.13;;;5.20;;
3875;SDS011;1953;51.222;6.624;2023-07-31T12:59:23;8.03;;;4.47;;
3875;SDS011;1953;51.222;6.624;2023-07-31T13:04:06;8.40;;;5.77;;
3875;SDS011;1953;51.222;6.624;2023-07-31T13:08:49;8.53;;;5.50;;
3875;SDS011;1953;51.222;6.624;2023-07-31T13:13:33;9.40;;;5.30;;
3875;SDS011;1953;51.222;6.624;2023-07-31T13:18:15;7.57;;;5.13;;
3875;SDS011;1953;51.222;6.624;2023-07-31T13:22:58;6.47;;;4.40;;
3875;SDS011;1953;51.222;6.624;2023-07-31T13:27:41;8.23;;;5.07;;
3875;SDS011;1953;51.222;6.624;2023-07-31T13:32:25;8.83;;;4.40;;
3875;SDS011;1953;51.222;6.624;2023-07-31T13:37:08;7.33;;;4.83;;
3875;SDS011;1953;51.222;6.624;2023-07-31T13:41:50;8.73;;;4.40;;
3875;SDS011;1953;51.222;6.624;2023-07-31T13:46:33;8.50;;;4.30;;
3875;SDS011;1953;51.222;6.624;2023-07-31T13:51:17;6.90;;;4.10;;
3875;SDS011;1953;51.222;6.624;2023-07-31T13:55:59;7.30;;;4.47;;
3875;SDS011;1953;51.222;6.624;2023-07-31T14:00:42;6.80;;;4.00;;
3875;SDS011;1953;51.222;6.624;2023-07-31T14:05:25;6.87;;;4.30;;
3875;SDS011;1953;51.222;6.624;2023-07-31T14:10:09;5.50;;;4.10;;
3875;SDS011;1953;51.222;6.624;2023-07-31T14:14:52;5.20;;;3.87;;
3875;SDS011;1953;51.222;6.624;2023-07-31T14:19:34;6.20;;;3.77;;
3875;SDS011;1953;51.222;6.624;2023-07-31T14:24:17;6.40;;;4.27;;
3875;SDS011;1953;51.222;6.624;2023-07-31T14:29:01;7.13;;;4.70;;
3875;SDS011;1953;51.222;6.624;2023-07-31T14:33:43;7.90;;;4.17;;
3875;SDS011;1953;51.222;6.624;2023-07-31T14:38:26;9.47;;;5.20;;
3875;SDS011;1953;51.222;6.624;2023-07-31T14:43:09;6.60;;;4.30;;
3875;SDS011;1953;51.222;6.624;2023-07-31T14:47:53;11.10;;;5.20;;
3875;SDS011;1953;51.222;6.624;2023-07-31T14:52:35;7.20;;;4.73;;
3875;SDS011;1953;51.222;6.624;2023-07-31T14:57:18;7.40;;;5.30;;
3875;SDS011;1953;51.222;6.624;2023-07-31T15:02:01;7.20;;;5.20;;
3875;SDS011;1953;51.222;6.624;2023-07-31T15:06:45;6.93;;;4.50;;
3875;SDS011;1953;51.222;6.624;2023-07-31T15:11:27;10.10;;;5.57;;
3875;SDS011;1953;51.222;6.624;2023-07-31T15:16:10;7.87;;;4.90;;
3875;SDS011;1953;51.222;6.624;2023-07-31T15:20:53;7.10;;;4.67;;
3875;SDS011;1953;51.222;6.624;2023-07-31T15:25:37;9.70;;;4.93;;
3875;SDS011;1953;51.222;6.624;2023-07-31T15:30:19;8.43;;;4.97;;
3875;SDS011;1953;51.222;6.624;2023-07-31T15:35:03;9.40;;;4.87;;
3875;SDS011;1953;51.222;6.624;2023-07-31T15:39:46;8.37;;;4.90;;
3875;SDS011;1953;51.222;6.624;2023-07-31T15:44:29;10.90;;;4.80;;
3875;SDS011;1953;51.222;6.624;2023-07-31T15:49:12;6.40;;;3.57;;
3875;SDS011;1953;51.222;6.624;2023-07-31T15:53:55;8.33;;;4.33;;
3875;SDS011;1953;51.222;6.624;2023-07-31T15:58:37;11.67;;;5.30;;
3875;SDS011;1953;51.222;6.624;2023-07-31T16:03:21;11.23;;;4.97;;
3875;SDS011;1953;51.222;6.624;2023-07-31T16:08:04;7.33;;;4.60;;
3875;SDS011;1953;51.222;6.624;2023-07-31T16:12:46;8.53;;;5.10;;
3875;SDS011;1953;51.222;6.624;2023-07-31T16:17:29;6.93;;;4.27;;
3875;SDS011;1953;51.222;6.624;2023-07-31T16:22:13;7.17;;;4.80;;
3875;SDS011;1953;51.222;6.624;2023-07-31T16:26:56;5.80;;;3.70;;
3875;SDS011;1953;51.222;6.624;2023-07-31T16:31:38;6.40;;;4.00;;
3875;SDS011;1953;51.222;6.624;2023-07-31T16:36:21;5.80;;;3.57;;
3875;SDS011;1953;51.222;6.624;2023-07-31T16:41:05;5.50;;;3.60;;
3875;SDS011;1953;51.222;6.624;2023-07-31T16:45:47;8.07;;;4.07;;
3875;SDS011;1953;51.222;6.624;2023-07-31T16:50:31;12.83;;;3.97;;
3875;SDS011;1953;51.222;6.624;2023-07-31T16:55:14;6.72;;;3.65;;
3875;SDS011;1953;51.222;6.624;2023-07-31T16:59:58;8.77;;;4.60;;
3875;SDS011;1953;51.222;6.624;2023-07-31T17:04:40;5.70;;;3.63;;
3875;SDS011;1953;51.222;6.624;2023-07-31T17:09:23;5.50;;;3.50;;
3875;SDS011;1953;51.222;6.624;2023-07-31T17:14:06;5.43;;;4.00;;
3875;SDS011;1953;51.222;6.624;2023-07-31T17:18:50;6.23;;;3.10;;
3875;SDS011;1953;51.222;6.624;2023-07-31T17:23:32;4.90;;;3.23;;
3875;SDS011;1953;51.222;6.624;2023-07-31T17:28:15;6.93;;;3.47;;
3875;SDS011;1953;51.222;6.624;2023-07-31T17:32:57;6.73;;;4.03;;
3875;SDS011;1953;51.222;6.624;2023-07-31T17:37:41;6.70;;;4.00;;
3875;SDS011;1953;51.222;6.624;2023-07-31T17:42:24;6.30;;;3.70;;
3875;SDS011;1953;51.222;6.624;2023-07-31T17:47:06;5.90;;;3.83;;
3875;SDS011;1953;51.222;6.624;2023-07-31T17:51:49;7.23;;;3.57;;
3875;SDS011;1953;51.222;6.624;2023-07-31T17:56:32;5.20;;;3.07;;
3875;SDS011;1953;51.222;6.624;2023-07-31T18:01:18;8.03;;;3.73;;
3875;SDS011;1953;51.222;6.624;2023-07-31T18:06:00;5.00;;;3.23;;
3875;SDS011;1953;51.222;6.624;2023-07-31T18:10:43;6.03;;;3.43;;
3875;SDS011;1953;51.222;6.624;2023-07-31T18:15:27;5.00;;;3.10;;
3875;SDS011;1953;51.222;6.624;2023-07-31T18:20:10;5.30;;;2.70;;
3875;SDS011;1953;51.222;6.624;2023-07-31T18:24:53;4.40;;;2.50;;
3875;SDS011;1953;51.222;6.624;2023-07-31T18:29:36;7.57;;;3.00;;
3875;SDS011;1953;51.222;6.624;2023-07-31T18:34:19;7.03;;;2.40;;
3875;SDS011;1953;51.222;6.624;2023-07-31T18:39:02;4.60;;;2.47;;
3875;SDS011;1953;51.222;6.624;2023-07-31T18:43:45;6.63;;;1.93;;
3875;SDS011;1953;51.222;6.624;2023-07-31T18:48:27;4.67;;;1.90;;
3875;SDS011;1953;51.222;6.624;2023-07-31T18:53:12;3.17;;;1.60;;
3875;SDS011;1953;51.222;6.624;2023-07-31T18:57:55;5.07;;;1.80;;
3875;SDS011;1953;51.222;6.624;2023-07-31T19:02:38;4.47;;;1.83;;
3875;SDS011;1953;51.222;6.624;2023-07-31T19:07:21;8.23;;;1.80;;
3875;SDS011;1953;51.222;6.624;2023-07-31T19:12:05;4.20;;;1.60;;
3875;SDS011;1953;51.222;6.624;2023-07-31T19:16:48;3.90;;;1.80;;
3875;SDS011;1953;51.222;6.624;2023-07-31T19:21:30;3.97;;;1.80;;
3875;SDS011;1953;51.222;6.624;2023-07-31T19:26:13;2.93;;;1.60;;
3875;SDS011;1953;51.222;6.624;2023-07-31T19:30:58;4.60;;;1.87;;
3875;SDS011;1953;51.222;6.624;2023-07-31T19:35:40;3.67;;;1.57;;
3875;SDS011;1953;51.222;6.624;2023-07-31T19:40:23;3.10;;;1.73;;
3875;SDS011;1953;51.222;6.624;2023-07-31T19:45:06;4.57;;;1.80;;
3875;SDS011;1953;51.222;6.624;2023-07-31T19:49:51;3.73;;;1.90;;
3875;SDS011;1953;51.222;6.624;2023-07-31T19:54:33;3.80;;;1.73;;
3875;SDS011;1953;51.222;6.624;2023-07-31T19:59:16;3.80;;;1.60;;
3875;SDS011;1953;51.222;6.624;2023-07-31T20:03:59;3.13;;;1.50;;
3875;SDS011;1953;51.222;6.624;2023-07-31T20:08:43;3.20;;;1.03;;
3875;SDS011;1953;51.222;6.624;2023-07-31T20:13:26;2.63;;;1.13;;
3875;SDS011;1953;51.222;6.624;2023-07-31T20:18:08;3.70;;;1.60;;
3875;SDS011;1953;51.222;6.624;2023-07-31T20:22:51;3.00;;;1.50;;
3875;SDS011;1953;51.222;6.624;2023-07-31T20:27:35;2.33;;;1.23;;
3875;SDS011;1953;51.222;6.624;2023-07-31T20:32:17;2.70;;;1.10;;
3875;SDS011;1953;51.222;6.624;2023-07-31T20:37:00;3.20;;;1.30;;
3875;SDS011;1953;51.222;6.624;2023-07-31T20:41:42;2.50;;;1.20;;
3875;SDS011;1953;51.222;6.624;2023-07-31T20:46:26;2.50;;;1.07;;
3875;SDS011;1953;51.222;6.624;2023-07-31T20:51:09;3.53;;;1.10;;
3875;SDS011;1953;51.222;6.624;2023-07-31T20:55:51;2.57;;;1.27;;
3875;SDS011;1953;51.222;6.624;2023-07-31T21:00:34;2.70;;;1.40;;
3875;SDS011;1953;51.222;6.624;2023-07-31T21:05:18;3.40;;;1.50;;
3875;SDS011;1953;51.222;6.624;2023-07-31T21:10:00;3.20;;;1.43;;
3875;SDS011;1953;51.222;6.624;2023-07-31T21:14:34;3.33;;;1.33;;
3875;SDS011;1953;51.222;6.624;2023-07-31T21:19:17;4.30;;;1.57;;
3875;SDS011;1953;51.222;6.624;2023-07-31T21:24:01;6.53;;;1.27;;
3875;SDS011;1953;51.222;6.624;2023-07-31T21:28:43;3.13;;;1.23;;
3875;SDS011;1953;51.222;6.624;2023-07-31T21:33:26;4.60;;;1.30;;
3875;SDS011;1953;51.222;6.624;2023-07-31T21:38:08;2.57;;;1.37;;
3875;SDS011;1953;51.222;6.624;2023-07-31T21:42:53;3.60;;;1.40;;
3875;SDS011;1953;51.222;6.624;2023-07-31T21:47:37;3.67;;;1.30;;
3875;SDS011;1953;51.222;6.624;2023-07-31T21:52:19;3.33;;;1.40;;
3875;SDS011;1953;51.222;6.624;2023-07-31T21:57:02;2.77;;;1.23;;
3875;SDS011;1953;51.222;6.624;2023-07-31T22:01:46;3.50;;;1.63;;
3875;SDS011;1953;51.222;6.624;2023-07-31T22:06:28;4.07;;;1.47;;
3875;SDS011;1953;51.222;6.624;2023-07-31T22:11:11;6.87;;;1.27;;
3875;SDS011;1953;51.222;6.624;2023-07-31T22:15:53;6.33;;;1.57;;
3875;SDS011;1953;51.222;6.624;2023-07-31T22:20:37;7.30;;;1.23;;
3875;SDS011;1953;51.222;6.624;2023-07-31T22:25:20;2.40;;;1.10;;
3875;SDS011;1953;51.222;6.624;2023-07-31T22:30:03;2.47;;;1.00;;
3875;SDS011;1953;51.222;6.624;2023-07-31T22:34:46;6.63;;;1.40;;
3875;SDS011;1953;51.222;6.624;2023-07-31T22:39:29;2.47;;;1.00;;
3875;SDS011;1953;51.222;6.624;2023-07-31T22:44:12;6.13;;;1.20;;
3875;SDS011;1953;51.222;6.624;2023-07-31T22:48:54;2.53;;;0.97;;
3875;SDS011;1953;51.222;6.624;2023-07-31T22:53:37;2.53;;;0.90;;
3875;SDS011;1953;51.222;6.624;2023-07-31T22:58:21;2.40;;;0.90;;
3875;SDS011;1953;51.222;6.624;2023-07-31T23:03:04;3.60;;;0.90;;
3875;SDS011;1953;51.222;6.624;2023-07-31T23:07:46;3.97;;;0.93;;
3875;SDS011;1953;51.222;6.624;2023-07-31T23:12:29;2.93;;;0.80;;
3875;SDS011;1953;51.222;6.624;2023-07-31T23:17:12;3.80;;;0.80;;
3875;SDS011;1953;51.222;6.624;2023-07-31T23:21:55;2.47;;;0.70;;
3875;SDS011;1953;51.222;6.624;2023-07-31T23:26:38;5.40;;;0.70;;
3875;SDS011;1953;51.222;6.624;2023-07-31T23:31:20;4.20;;;0.90;;
3875;SDS011;1953;51.222;6.624;2023-07-31T23:36:10;2.43;;;0.90;;
3875;SDS011;1953;51.222;6.624;2023-07-31T23:40:53;2.10;;;0.80;;
3875;SDS011;1953;51.222;6.624;2023-07-31T23:45:36;3.30;;;0.70;;
3875;SDS011;1953;51.222;6.624;2023-07-31T23:50:18;2.80;;;0.83;;
3875;SDS011;1953;51.222;6.624;2023-07-31T23:55:02;3.40;;;0.70;;
3875;SDS011;1953;51.222;6.624;2023-07-31T23:59:46;1.60;;;0.50;;
